createdAt,value
2019-06-01T00:00:10.370Z,12.00
2019-06-01T00:02:24.964Z,12.10
2019-06-01T00:04:53.174Z,12.20
2019-06-01T00:07:21.379Z,12.20
2019-06-01T00:09:49.731Z,12.20
2019-06-01T00:12:17.925Z,11.90
2019-06-01T00:14:46.145Z,11.80
2019-06-01T00:17:14.338Z,11.70
2019-06-01T00:19:42.538Z,11.70
2019-06-01T00:22:10.750Z,11.70
2019-06-01T00:24:39.009Z,11.70
2019-06-01T00:27:07.212Z,11.60
2019-06-01T00:29:35.410Z,11.70
2019-06-01T00:32:03.618Z,11.90
2019-06-01T00:34:31.819Z,11.80
2019-06-01T00:37:00.028Z,11.60
2019-06-01T00:39:28.224Z,11.60
2019-06-01T00:41:56.429Z,11.50
2019-06-01T00:44:24.632Z,11.50
2019-06-01T00:46:52.848Z,11.50
2019-06-01T00:49:21.032Z,11.40
2019-06-01T00:51:49.244Z,11.30
2019-06-01T00:54:17.444Z,11.30
2019-06-01T00:56:45.662Z,11.30
2019-06-01T00:59:13.933Z,11.30
2019-06-01T01:01:42.132Z,11.50
2019-06-01T01:04:10.409Z,11.40
2019-06-01T01:06:38.613Z,11.20
2019-06-01T01:09:07.048Z,11.10
2019-06-01T01:11:35.258Z,11.00
2019-06-01T01:14:04.824Z,11.00
2019-06-01T01:16:33.115Z,11.00
2019-06-01T01:19:01.309Z,11.00
2019-06-01T01:21:29.512Z,11.00
2019-06-01T01:23:57.724Z,10.90
2019-06-01T01:26:25.932Z,10.90
2019-06-01T01:28:54.942Z,10.90
2019-06-01T01:31:23.212Z,10.90
2019-06-01T01:33:51.491Z,10.90
2019-06-01T01:36:19.692Z,10.90
2019-06-01T01:38:48.314Z,10.90
2019-06-01T01:41:16.632Z,10.90
2019-06-01T01:43:44.833Z,10.90
2019-06-01T01:46:13.037Z,10.80
2019-06-01T01:48:41.234Z,10.80
2019-06-01T01:51:09.441Z,10.80
2019-06-01T01:53:37.640Z,10.80
2019-06-01T01:56:05.846Z,10.70
2019-06-01T01:58:34.051Z,10.80
2019-06-01T02:01:20.814Z,10.80
2019-06-01T02:03:32.175Z,10.70
2019-06-01T02:06:00.439Z,10.80
2019-06-01T02:08:28.650Z,10.80
2019-06-01T02:10:57.492Z,10.80
2019-06-01T02:13:25.729Z,10.80
2019-06-01T02:15:54.136Z,10.70
2019-06-01T02:18:22.409Z,10.70
2019-06-01T02:20:50.611Z,10.70
2019-06-01T02:23:18.820Z,10.60
2019-06-01T02:25:47.020Z,10.50
2019-06-01T02:28:15.225Z,10.40
2019-06-01T02:30:43.422Z,10.40
2019-06-01T02:33:11.626Z,10.40
2019-06-01T02:35:39.825Z,10.40
2019-06-01T02:38:08.027Z,10.30
2019-06-01T02:40:36.416Z,10.30
2019-06-01T02:43:06.907Z,10.30
2019-06-01T02:45:34.792Z,10.30
2019-06-01T02:48:03.836Z,10.30
2019-06-01T02:50:32.680Z,10.30
2019-06-01T02:53:01.516Z,10.30
2019-06-01T02:55:29.757Z,10.20
2019-06-01T02:57:58.089Z,10.10
2019-06-01T03:00:47.373Z,10.10
2019-06-01T03:03:15.586Z,10.10
2019-06-01T03:05:44.528Z,10.20
2019-06-01T03:08:13.102Z,10.00
2019-06-01T03:10:41.304Z,10.00
2019-06-01T03:13:09.504Z,9.90
2019-06-01T03:15:38.444Z,10.00
2019-06-01T03:18:07.737Z,10.00
2019-06-01T03:20:36.020Z,10.10
2019-06-01T03:23:04.224Z,10.20
2019-06-01T03:25:32.431Z,10.20
2019-06-01T03:28:00.635Z,10.10
2019-06-01T03:30:37.640Z,10.00
2019-06-01T03:33:07.969Z,9.90
2019-06-01T03:35:35.740Z,9.90
2019-06-01T03:38:04.946Z,9.80
2019-06-01T03:40:33.211Z,9.80
2019-06-01T03:43:02.327Z,9.80
2019-06-01T03:45:30.588Z,9.80
2019-06-01T03:47:58.801Z,9.80
2019-06-01T03:50:27.001Z,9.80
2019-06-01T03:52:55.192Z,9.80
2019-06-01T03:55:23.394Z,9.90
2019-06-01T03:57:51.597Z,10.00
2019-06-01T04:00:19.808Z,10.00
2019-06-01T04:02:48.008Z,10.10
2019-06-01T04:05:16.214Z,10.10
2019-06-01T04:07:44.423Z,10.10
2019-06-01T04:10:12.620Z,10.20
2019-06-01T04:12:40.819Z,10.10
2019-06-01T04:15:12.834Z,10.10
2019-06-01T04:17:38.956Z,10.20
2019-06-01T04:20:08.209Z,10.20
2019-06-01T04:22:36.548Z,10.20
2019-06-01T04:25:06.200Z,10.30
2019-06-01T04:27:34.404Z,10.30
2019-06-01T04:30:02.639Z,10.40
2019-06-01T04:32:30.808Z,10.40
2019-06-01T04:34:59.008Z,10.40
2019-06-01T04:37:27.208Z,10.40
2019-06-01T04:39:55.412Z,10.50
2019-06-01T04:42:23.780Z,10.50
2019-06-01T04:44:51.986Z,10.60
2019-06-01T04:47:20.183Z,10.60
2019-06-01T04:49:48.386Z,10.70
2019-06-01T04:52:16.583Z,10.80
2019-06-01T04:54:44.783Z,10.80
2019-06-01T04:57:13.085Z,10.90
2019-06-01T04:59:41.265Z,11.10
2019-06-01T05:02:09.478Z,11.10
2019-06-01T05:04:37.666Z,11.20
2019-06-01T05:07:07.148Z,11.30
2019-06-01T05:09:35.444Z,11.40
2019-06-01T05:12:03.648Z,11.60
2019-06-01T05:14:31.858Z,11.70
2019-06-01T05:17:00.060Z,11.70
2019-06-01T05:19:28.260Z,11.80
2019-06-01T05:21:56.460Z,12.00
2019-06-01T05:24:24.662Z,12.20
2019-06-01T05:26:52.860Z,12.20
2019-06-01T05:29:21.070Z,12.30
2019-06-01T05:31:49.273Z,12.40
2019-06-01T05:34:18.341Z,12.50
2019-06-01T05:36:46.769Z,12.60
2019-06-01T05:39:14.980Z,12.70
2019-06-01T05:41:43.172Z,12.80
2019-06-01T05:44:11.380Z,12.90
2019-06-01T05:46:39.568Z,13.00
2019-06-01T05:49:07.764Z,13.10
2019-06-01T05:51:35.977Z,13.20
2019-06-01T05:54:04.224Z,13.30
2019-06-01T05:56:32.456Z,13.50
2019-06-01T05:59:00.663Z,13.70
2019-06-01T06:01:28.860Z,13.80
2019-06-01T06:03:57.228Z,13.90
2019-06-01T06:06:25.432Z,14.00
2019-06-01T06:08:53.631Z,14.10
2019-06-01T06:11:21.837Z,14.30
2019-06-01T06:13:50.032Z,14.40
2019-06-01T06:16:18.442Z,14.50
2019-06-01T06:18:48.364Z,14.70
2019-06-01T06:21:16.571Z,14.80
2019-06-01T06:23:44.769Z,14.90
2019-06-01T06:26:15.086Z,15.10
2019-06-01T06:28:42.896Z,15.20
2019-06-01T06:31:11.105Z,15.40
2019-06-01T06:33:39.297Z,15.60
2019-06-01T06:36:07.500Z,15.80
2019-06-01T06:38:35.697Z,15.90
2019-06-01T06:41:03.912Z,16.10
2019-06-01T06:43:33.271Z,16.20
2019-06-01T06:46:01.680Z,16.40
2019-06-01T06:48:29.885Z,16.60
2019-06-01T06:50:59.319Z,16.80
2019-06-01T06:53:34.455Z,17.00
2019-06-01T06:55:57.468Z,17.20
2019-06-01T06:58:26.531Z,17.40
2019-06-01T07:00:54.823Z,17.60
2019-06-01T07:03:23.171Z,17.80
2019-06-01T07:05:51.403Z,18.00
2019-06-01T07:08:19.775Z,18.20
2019-06-01T07:10:47.993Z,18.30
2019-06-01T07:13:16.190Z,18.50
2019-06-01T07:15:44.411Z,18.70
2019-06-01T07:18:12.660Z,18.90
2019-06-01T07:20:40.859Z,19.20
2019-06-01T07:23:09.067Z,19.40
2019-06-01T07:25:37.264Z,19.50
2019-06-01T07:28:05.647Z,19.80
2019-06-01T07:30:49.426Z,20.00
2019-06-01T07:33:03.760Z,20.20
2019-06-01T07:35:32.583Z,20.40
2019-06-01T07:38:00.836Z,20.60
2019-06-01T07:40:29.038Z,20.80
2019-06-01T07:42:57.245Z,21.00
2019-06-01T07:45:25.456Z,21.20
2019-06-01T07:47:53.924Z,21.30
2019-06-01T07:50:22.125Z,21.50
2019-06-01T07:52:50.348Z,21.60
2019-06-01T07:55:18.548Z,21.80
2019-06-01T07:57:46.753Z,22.10
2019-06-01T08:00:15.023Z,22.40
2019-06-01T08:02:43.248Z,22.50
2019-06-01T08:05:11.449Z,22.70
2019-06-01T08:07:39.656Z,22.90
2019-06-01T08:10:07.866Z,23.20
2019-06-01T08:12:36.197Z,23.40
2019-06-01T08:15:07.748Z,23.40
2019-06-01T08:17:35.957Z,23.60
2019-06-01T08:20:04.792Z,23.70
2019-06-01T08:22:32.996Z,23.80
2019-06-01T08:25:01.193Z,24.10
2019-06-01T08:27:30.557Z,24.30
2019-06-01T08:29:58.822Z,24.50
2019-06-01T08:32:27.091Z,24.70
2019-06-01T08:35:07.916Z,24.90
2019-06-01T08:37:25.217Z,25.00
2019-06-01T08:39:53.422Z,24.90
2019-06-01T08:42:21.640Z,25.00
2019-06-01T08:44:49.845Z,25.10
2019-06-01T08:47:18.057Z,25.30
2019-06-01T08:49:46.253Z,25.60
2019-06-01T08:52:14.453Z,25.80
2019-06-01T08:54:42.650Z,25.90
2019-06-01T08:57:10.852Z,26.10
2019-06-01T08:59:39.057Z,26.20
2019-06-01T09:02:07.434Z,26.40
2019-06-01T09:04:35.664Z,26.60
2019-06-01T09:07:03.869Z,26.80
2019-06-01T09:09:33.135Z,26.90
2019-06-01T09:12:01.466Z,27.10
2019-06-01T09:14:29.676Z,27.10
2019-06-01T09:16:57.918Z,27.40
2019-06-01T09:19:27.242Z,27.50
2019-06-01T09:21:55.512Z,27.70
2019-06-01T09:24:23.723Z,27.90
2019-06-01T09:26:52.031Z,27.70
2019-06-01T09:29:20.337Z,27.80
2019-06-01T09:31:48.549Z,28.10
2019-06-01T09:34:16.760Z,28.20
2019-06-01T09:36:44.964Z,28.30
2019-06-01T09:39:13.176Z,28.50
2019-06-01T09:41:41.388Z,28.50
2019-06-01T09:44:09.685Z,28.70
2019-06-01T09:46:37.900Z,28.60
2019-06-01T09:49:06.116Z,29.00
2019-06-01T09:51:35.545Z,29.40
2019-06-01T09:54:03.933Z,29.00
2019-06-01T09:56:33.991Z,29.00
2019-06-01T09:59:02.104Z,29.20
2019-06-01T10:01:30.306Z,29.40
2019-06-01T10:03:58.520Z,29.20
2019-06-01T10:06:26.715Z,29.30
2019-06-01T10:08:54.930Z,29.60
2019-06-01T10:11:23.122Z,29.80
2019-06-01T10:13:51.664Z,29.50
2019-06-01T10:16:19.956Z,29.70
2019-06-01T10:18:48.155Z,29.90
2019-06-01T10:21:16.364Z,30.20
2019-06-01T10:23:49.291Z,30.40
2019-06-01T10:26:14.507Z,30.70
2019-06-01T10:28:42.701Z,30.60
2019-06-01T10:31:10.945Z,30.70
2019-06-01T10:33:39.144Z,30.60
2019-06-01T10:36:19.838Z,30.90
2019-06-01T10:38:37.452Z,30.80
2019-06-01T10:41:05.766Z,30.80
2019-06-01T10:43:33.969Z,31.20
2019-06-01T10:46:02.186Z,31.00
2019-06-01T10:48:32.647Z,31.20
2019-06-01T10:51:00.304Z,31.70
2019-06-01T10:53:28.524Z,31.80
2019-06-01T10:55:56.717Z,32.00
2019-06-01T10:58:24.914Z,31.90
2019-06-01T11:00:53.120Z,31.40
2019-06-01T11:03:21.320Z,31.20
2019-06-01T11:05:49.518Z,31.40
2019-06-01T11:08:17.720Z,31.50
2019-06-01T11:10:46.016Z,31.40
2019-06-01T11:13:14.216Z,31.50
2019-06-01T11:15:43.306Z,31.60
2019-06-01T11:18:11.597Z,31.60
2019-06-01T11:20:39.796Z,31.70
2019-06-01T11:23:08.052Z,31.80
2019-06-01T11:25:37.510Z,32.00
2019-06-01T11:28:05.846Z,31.60
2019-06-01T11:30:34.049Z,31.90
2019-06-01T11:33:02.278Z,32.40
2019-06-01T11:35:30.480Z,32.60
2019-06-01T11:37:58.690Z,32.10
2019-06-01T11:40:29.589Z,31.60
2019-06-01T11:42:57.860Z,32.00
2019-06-01T11:45:26.070Z,32.10
2019-06-01T11:47:54.274Z,31.70
2019-06-01T11:50:22.476Z,32.50
2019-06-01T11:52:50.680Z,32.50
2019-06-01T11:55:18.876Z,32.80
2019-06-01T11:57:47.081Z,33.00
2019-06-01T12:00:17.082Z,33.10
2019-06-01T12:02:46.050Z,33.20
2019-06-01T12:05:14.364Z,32.80
2019-06-01T12:07:42.572Z,31.80
2019-06-01T12:10:10.768Z,31.40
2019-06-01T12:12:40.227Z,31.80
2019-06-01T12:15:08.548Z,31.90
2019-06-01T12:17:36.756Z,31.80
2019-06-01T12:20:07.683Z,32.10
2019-06-01T12:22:36.739Z,32.20
2019-06-01T12:25:05.397Z,31.50
2019-06-01T12:27:33.600Z,31.30
2019-06-01T12:30:01.868Z,31.10
2019-06-01T12:32:30.094Z,31.00
2019-06-01T12:35:02.806Z,30.90
2019-06-01T12:37:45.618Z,30.60
2019-06-01T12:39:58.141Z,30.40
2019-06-01T12:42:26.348Z,30.30
2019-06-01T12:44:54.544Z,30.20
2019-06-01T12:47:22.748Z,29.60
2019-06-01T12:49:50.949Z,29.50
2019-06-01T12:52:19.148Z,29.80
2019-06-01T12:54:47.345Z,29.70
2019-06-01T12:57:15.548Z,29.90
2019-06-01T12:59:44.880Z,30.20
2019-06-01T13:02:13.433Z,30.20
2019-06-01T13:04:42.773Z,30.20
2019-06-01T13:07:11.122Z,29.80
2019-06-01T13:09:39.401Z,29.70
2019-06-01T13:12:07.608Z,29.90
2019-06-01T13:14:35.808Z,30.20
2019-06-01T13:17:07.566Z,30.20
2019-06-01T13:19:33.966Z,30.10
2019-06-01T13:22:02.316Z,30.20
2019-06-01T13:24:30.554Z,30.00
2019-06-01T13:26:58.758Z,29.60
2019-06-01T13:29:26.957Z,29.20
2019-06-01T13:31:55.171Z,29.10
2019-06-01T13:34:23.374Z,29.40
2019-06-01T13:36:52.934Z,29.40
2019-06-01T13:39:21.245Z,29.40
2019-06-01T13:41:49.644Z,29.40
2019-06-01T13:44:17.920Z,29.10
2019-06-01T13:46:47.196Z,28.80
2019-06-01T13:49:15.608Z,28.70
2019-06-01T13:51:44.115Z,28.50
2019-06-01T13:54:12.380Z,28.40
2019-06-01T13:56:40.585Z,28.10
2019-06-01T13:59:08.793Z,28.20
2019-06-01T14:01:36.993Z,28.20
2019-06-01T14:04:05.574Z,28.50
2019-06-01T14:06:33.776Z,28.60
2019-06-01T14:09:01.980Z,28.60
2019-06-01T14:11:30.179Z,28.60
2019-06-01T14:13:58.380Z,28.60
2019-06-01T14:16:26.585Z,28.30
2019-06-01T14:18:55.980Z,28.40
2019-06-01T14:21:24.265Z,28.40
2019-06-01T14:23:52.473Z,28.30
2019-06-01T14:26:20.681Z,28.40
2019-06-01T14:28:50.090Z,28.20
2019-06-01T14:31:18.400Z,28.00
2019-06-01T14:33:46.614Z,27.80
2019-06-01T14:36:14.800Z,27.70
2019-06-01T14:38:46.834Z,27.80
2019-06-01T14:41:12.920Z,27.90
2019-06-01T14:43:41.129Z,27.70
2019-06-01T14:46:09.325Z,27.60
2019-06-01T14:48:37.594Z,27.50
2019-06-01T14:51:05.802Z,27.40
2019-06-01T14:53:34.004Z,27.20
2019-06-01T14:56:02.226Z,27.20
2019-06-01T14:58:30.481Z,27.10
2019-06-01T15:00:58.689Z,27.10
2019-06-01T15:03:26.884Z,27.10
2019-06-01T15:05:56.416Z,26.80
2019-06-01T15:08:24.763Z,26.70
2019-06-01T15:10:53.423Z,26.70
2019-06-01T15:13:22.892Z,26.60
2019-06-01T15:15:51.352Z,26.70
2019-06-01T15:18:19.665Z,26.60
2019-06-01T15:20:47.870Z,26.70
2019-06-01T15:23:16.067Z,26.50
2019-06-01T15:25:44.264Z,26.60
2019-06-01T15:28:12.480Z,26.50
2019-06-01T15:30:40.676Z,26.70
2019-06-01T15:33:08.882Z,26.70
2019-06-01T15:35:37.077Z,26.80
2019-06-01T15:38:05.293Z,26.70
2019-06-01T15:40:33.500Z,26.50
2019-06-01T15:43:01.700Z,26.40
2019-06-01T15:45:29.924Z,26.50
2019-06-01T15:47:58.108Z,26.30
2019-06-01T15:50:26.317Z,26.20
2019-06-01T15:52:54.956Z,26.10
2019-06-01T15:55:23.396Z,26.10
2019-06-01T15:57:52.208Z,26.10
2019-06-01T16:00:20.477Z,26.20
2019-06-01T16:02:48.683Z,26.20
2019-06-01T16:05:16.960Z,26.10
2019-06-01T16:07:45.164Z,26.00
2019-06-01T16:10:13.438Z,26.00
2019-06-01T16:12:41.670Z,25.90
2019-06-01T16:15:09.989Z,25.90
2019-06-01T16:17:38.189Z,25.80
2019-06-01T16:20:07.538Z,25.80
2019-06-01T16:22:35.736Z,25.70
2019-06-01T16:25:06.389Z,25.60
2019-06-01T16:27:34.589Z,25.60
2019-06-01T16:30:05.666Z,25.50
2019-06-01T16:32:34.003Z,25.50
2019-06-01T16:35:03.100Z,25.50
2019-06-01T16:37:31.384Z,25.50
2019-06-01T16:40:04.304Z,25.50
2019-06-01T16:42:29.512Z,25.50
2019-06-01T16:44:57.716Z,25.40
2019-06-01T16:47:25.916Z,25.50
2019-06-01T16:49:55.674Z,25.50
2019-06-01T16:52:23.992Z,25.40
2019-06-01T16:54:52.196Z,25.30
2019-06-01T16:57:20.401Z,25.30
2019-06-01T16:59:48.606Z,25.30
2019-06-01T17:02:16.805Z,25.20
2019-06-01T17:04:45.008Z,25.10
2019-06-01T17:07:13.212Z,25.10
2019-06-01T17:09:41.421Z,25.10
2019-06-01T17:12:09.634Z,25.10
2019-06-01T17:14:37.834Z,24.90
2019-06-01T17:17:07.397Z,24.80
2019-06-01T17:19:35.724Z,24.90
2019-06-01T17:22:03.976Z,24.90
2019-06-01T17:24:32.197Z,24.70
2019-06-01T17:27:00.410Z,24.70
2019-06-01T17:29:28.612Z,24.70
2019-06-01T17:32:13.412Z,24.60
2019-06-01T17:34:26.757Z,24.50
2019-06-01T17:36:55.012Z,24.50
2019-06-01T17:39:23.252Z,24.40
2019-06-01T17:41:51.464Z,24.40
2019-06-01T17:44:19.687Z,24.40
2019-06-01T17:46:53.422Z,24.40
2019-06-01T17:49:17.860Z,24.30
2019-06-01T17:51:46.070Z,24.30
2019-06-01T17:54:14.272Z,24.20
2019-06-01T17:56:42.477Z,24.10
2019-06-01T17:59:11.583Z,24.10
2019-06-01T18:01:42.248Z,24.10
2019-06-01T18:04:10.120Z,23.90
2019-06-01T18:06:38.324Z,23.90
2019-06-01T18:09:08.153Z,23.80
2019-06-01T18:11:36.370Z,23.70
2019-06-01T18:14:06.151Z,23.60
2019-06-01T18:16:34.393Z,23.60
2019-06-01T18:19:02.596Z,23.50
2019-06-01T18:21:33.420Z,23.40
2019-06-01T18:24:03.425Z,23.30
2019-06-01T18:26:30.648Z,23.20
2019-06-01T18:28:58.848Z,23.20
2019-06-01T18:31:27.057Z,23.20
2019-06-01T18:33:55.252Z,23.10
2019-06-01T18:36:23.492Z,23.00
2019-06-01T18:38:51.700Z,23.00
2019-06-01T18:41:20.299Z,22.90
2019-06-01T18:43:48.609Z,22.70
2019-06-01T18:46:16.834Z,22.60
2019-06-01T18:48:45.036Z,22.50
2019-06-01T18:51:14.461Z,22.40
2019-06-01T18:53:42.752Z,22.30
2019-06-01T18:56:12.202Z,22.30
2019-06-01T18:58:40.560Z,22.10
2019-06-01T19:01:08.779Z,22.00
2019-06-01T19:03:36.981Z,21.90
2019-06-01T19:06:05.231Z,21.80
2019-06-01T19:08:33.414Z,21.70
2019-06-01T19:11:01.621Z,21.60
2019-06-01T19:13:29.829Z,21.50
2019-06-01T19:15:58.040Z,21.50
2019-06-01T19:18:26.265Z,21.40
2019-06-01T19:20:54.465Z,21.30
2019-06-01T19:23:23.040Z,21.10
2019-06-01T19:25:51.366Z,21.10
2019-06-01T19:28:19.569Z,20.90
2019-06-01T19:30:47.784Z,20.90
2019-06-01T19:33:17.828Z,20.80
2019-06-01T19:35:45.917Z,20.80
2019-06-01T19:38:15.326Z,20.70
2019-06-01T19:40:43.756Z,20.70
2019-06-01T19:43:11.949Z,20.70
2019-06-01T19:45:40.152Z,20.60
2019-06-01T19:48:08.465Z,20.50
2019-06-01T19:50:36.673Z,20.40
2019-06-01T19:53:04.886Z,20.50
2019-06-01T19:55:33.089Z,20.30
2019-06-01T19:58:01.297Z,20.20
2019-06-01T20:00:29.504Z,20.20
2019-06-01T20:02:57.713Z,20.20
2019-06-01T20:05:25.939Z,20.10
2019-06-01T20:07:54.141Z,20.00
2019-06-01T20:10:22.628Z,19.80
2019-06-01T20:12:50.949Z,19.70
2019-06-01T20:15:19.626Z,19.60
2019-06-01T20:17:47.971Z,19.50
2019-06-01T20:20:19.640Z,19.40
2019-06-01T20:22:47.932Z,19.30
2019-06-01T20:25:17.402Z,19.30
2019-06-01T20:27:45.815Z,19.20
2019-06-01T20:30:14.017Z,19.00
2019-06-01T20:32:42.224Z,18.90
2019-06-01T20:35:11.734Z,18.90
2019-06-01T20:37:40.000Z,18.90
2019-06-01T20:40:08.276Z,18.80
2019-06-01T20:42:36.476Z,18.70
2019-06-01T20:45:07.891Z,18.60
2019-06-01T20:47:36.084Z,18.60
2019-06-01T20:50:07.388Z,18.50
2019-06-01T20:52:35.597Z,18.40
2019-06-01T20:55:08.042Z,18.30
2019-06-01T20:57:36.248Z,18.20
2019-06-01T21:00:06.869Z,18.10
2019-06-01T21:02:35.123Z,18.00
2019-06-01T21:05:04.174Z,17.90
2019-06-01T21:07:32.393Z,17.90
2019-06-01T21:10:00.617Z,17.80
2019-06-01T21:12:44.095Z,17.90
2019-06-01T21:14:58.842Z,17.80
2019-06-01T21:17:27.053Z,17.80
2019-06-01T21:19:55.264Z,17.80
2019-06-01T21:22:24.822Z,17.70
2019-06-01T21:24:53.213Z,17.70
2019-06-01T21:27:22.628Z,17.60
2019-06-01T21:29:50.897Z,17.50
2019-06-01T21:32:19.262Z,17.30
2019-06-01T21:34:47.509Z,17.30
2019-06-01T21:37:15.712Z,17.20
2019-06-01T21:39:43.932Z,17.10
2019-06-01T21:42:12.149Z,17.10
2019-06-01T21:44:40.398Z,17.10
2019-06-01T21:47:08.617Z,17.20
2019-06-01T21:49:36.854Z,17.10
2019-06-01T21:52:05.057Z,17.20
2019-06-01T21:54:33.291Z,17.10
2019-06-01T21:57:01.540Z,17.00
2019-06-01T21:59:29.755Z,16.90
2019-06-01T22:01:57.966Z,16.70
2019-06-01T22:04:27.210Z,16.60
2019-06-01T22:06:55.493Z,16.60
2019-06-01T22:09:23.718Z,16.50
2019-06-01T22:11:51.984Z,16.40
2019-06-01T22:14:21.272Z,16.40
2019-06-01T22:16:49.568Z,16.30
2019-06-01T22:19:17.785Z,16.30
2019-06-01T22:21:45.988Z,16.30
2019-06-01T22:24:14.196Z,16.20
2019-06-01T22:26:42.410Z,16.10
2019-06-01T22:29:10.622Z,16.00
2019-06-01T22:31:38.834Z,15.90
2019-06-01T22:34:07.036Z,15.90
2019-06-01T22:36:35.241Z,15.90
2019-06-01T22:39:04.583Z,15.80
2019-06-01T22:41:32.784Z,15.80
2019-06-01T22:44:01.013Z,15.70
2019-06-01T22:46:29.336Z,15.70
2019-06-01T22:48:57.541Z,15.60
2019-06-01T22:51:27.046Z,15.50
2019-06-01T22:53:55.416Z,15.50
2019-06-01T22:56:23.596Z,15.40
2019-06-01T22:58:51.800Z,15.40
2019-06-01T23:01:20.983Z,15.40
2019-06-01T23:03:49.289Z,15.40
2019-06-01T23:06:17.501Z,15.40
2019-06-01T23:08:45.777Z,15.40
2019-06-01T23:11:13.985Z,15.30
2019-06-01T23:13:52.883Z,15.20
2019-06-01T23:16:12.125Z,15.20
2019-06-01T23:18:40.323Z,15.30
2019-06-01T23:21:08.542Z,15.30
2019-06-01T23:23:36.737Z,15.10
2019-06-01T23:26:04.951Z,15.10
2019-06-01T23:28:33.148Z,15.00
2019-06-01T23:31:01.361Z,15.00
2019-06-01T23:33:30.649Z,14.90
2019-06-01T23:35:59.140Z,14.80
2019-06-01T23:38:28.584Z,14.70
2019-06-01T23:40:56.921Z,14.70
2019-06-01T23:43:25.133Z,14.70
2019-06-01T23:45:53.332Z,14.70
2019-06-01T23:48:21.536Z,14.70
2019-06-01T23:50:49.792Z,14.70
2019-06-01T23:53:18.008Z,14.60
2019-06-01T23:55:46.212Z,14.50
2019-06-01T23:58:14.412Z,14.50
